Terminal Aerodrome Forecast
Issued by NWS Albany, NY

Home | Current Version | Previous Version | Text Only | Print | Product List | Glossary On
Versions: 1 2 3 4 5 6 7 8 9 10 11 12 13 14 15 16 17 18 19
841
FTUS41 KALY 251756 AAA
TAFGFL
TAF AMD
KGFL 251756Z 2518/2618 21011G17KT P6SM SCT250
     FM252300 24008KT P6SM SCT090
     FM260900 22004KT P6SM SCT060
     FM261700 23005KT P6SM BKN150 PROB30 2617/2618 4SM -TSRA
      OVC040CB=

USA.gov is the U.S. government's official web portal to all federal, state and local government web resources and services.